createdAt,value
2022-10-19T00:01:15.916Z,436.90
2022-10-19T00:03:45.242Z,438.13
2022-10-19T00:06:15.891Z,464.20
2022-10-19T00:08:44.681Z,510.47
2022-10-19T00:11:13.465Z,493.40
2022-10-19T00:13:42.869Z,495.90
2022-10-19T00:16:12.771Z,516.73
2022-10-19T00:18:43.360Z,502.47
2022-10-19T00:21:13.224Z,493.10
2022-10-19T00:23:41.334Z,533.00
2022-10-19T00:26:09.969Z,537.67
2022-10-19T00:28:38.206Z,531.90
2022-10-19T00:31:09.702Z,538.50
2022-10-19T00:33:38.002Z,514.67
2022-10-19T00:36:07.150Z,531.93
2022-10-19T00:38:35.207Z,523.63
2022-10-19T00:41:04.142Z,525.00
2022-10-19T00:43:32.487Z,521.90
2022-10-19T00:46:00.616Z,528.07
2022-10-19T00:48:33.233Z,529.57
2022-10-19T00:51:01.384Z,512.13
2022-10-19T00:53:31.207Z,539.57
2022-10-19T00:56:00.628Z,493.97
2022-10-19T00:58:28.871Z,524.73
2022-10-19T01:00:56.947Z,494.20
2022-10-19T01:03:25.138Z,514.07
2022-10-19T01:05:54.872Z,509.23
2022-10-19T01:08:23.538Z,493.33
2022-10-19T01:10:57.049Z,554.47
2022-10-19T01:13:37.771Z,528.13
2022-10-19T01:16:11.600Z,534.90
2022-10-19T01:18:44.529Z,522.00
2022-10-19T01:21:21.069Z,518.83
2022-10-19T01:24:23.684Z,475.00
2022-10-19T01:27:25.473Z,443.97
2022-10-19T01:30:16.606Z,422.60
2022-10-19T01:33:09.700Z,467.00
2022-10-19T01:35:41.344Z,478.53
2022-10-19T01:38:20.795Z,481.17
2022-10-19T01:40:55.771Z,475.57
2022-10-19T01:43:33.201Z,480.10
2022-10-19T01:46:07.745Z,476.43
2022-10-19T01:48:37.093Z,463.97
2022-10-19T01:51:07.734Z,492.57
2022-10-19T01:53:39.790Z,518.73
2022-10-19T01:56:08.197Z,517.97
2022-10-19T01:58:38.566Z,522.97
2022-10-19T02:03:40.967Z,491.50
2022-10-19T02:06:10.394Z,475.10
2022-10-19T02:08:41.980Z,520.40
2022-10-19T02:11:10.354Z,487.20
2022-10-19T02:13:40.587Z,523.37
2022-10-19T02:16:15.171Z,497.83
2022-10-19T02:18:46.445Z,503.23
2022-10-19T02:21:14.784Z,478.67
2022-10-19T02:23:42.836Z,489.20
2022-10-19T02:26:11.151Z,559.33
2022-10-19T02:28:39.676Z,545.80
2022-10-19T02:31:07.796Z,498.23
2022-10-19T02:33:38.040Z,532.23
2022-10-19T02:36:06.816Z,522.37
2022-10-19T02:38:35.148Z,528.53
2022-10-19T02:41:06.503Z,555.83
2022-10-19T02:43:36.304Z,538.67
2022-10-19T02:46:08.071Z,526.30
2022-10-19T02:48:38.270Z,507.87
2022-10-19T02:51:06.667Z,528.43
2022-10-19T02:53:34.799Z,533.10
2022-10-19T02:56:02.906Z,532.57
2022-10-19T02:58:30.889Z,522.07
2022-10-19T03:00:58.917Z,569.30
2022-10-19T03:03:26.909Z,513.20
2022-10-19T03:05:56.526Z,499.13
2022-10-19T03:08:24.490Z,564.60
2022-10-19T03:10:52.498Z,515.27
2022-10-19T03:13:20.560Z,554.97
2022-10-19T03:15:48.809Z,528.83
2022-10-19T03:18:17.075Z,542.53
2022-10-19T03:20:45.533Z,526.93
2022-10-19T03:23:14.863Z,535.63
2022-10-19T03:25:42.952Z,537.63
2022-10-19T03:28:10.936Z,564.53
2022-10-19T03:30:38.962Z,572.67
2022-10-19T03:33:07.002Z,526.57
2022-10-19T03:35:35.017Z,536.87
2022-10-19T03:38:02.970Z,506.87
2022-10-19T03:40:32.422Z,503.00
2022-10-19T03:43:00.495Z,498.63
2022-10-19T03:45:28.496Z,505.67
2022-10-19T03:47:56.600Z,517.37
2022-10-19T03:50:24.732Z,511.60
2022-10-19T03:52:52.830Z,510.57
2022-10-19T03:55:20.887Z,490.93
2022-10-19T03:57:50.287Z,457.50
2022-10-19T04:00:18.476Z,467.93
2022-10-19T04:02:46.457Z,472.37
2022-10-19T04:05:14.639Z,475.93
2022-10-19T04:07:42.902Z,459.80
2022-10-19T04:10:11.188Z,474.10
2022-10-19T04:12:39.189Z,441.63
2022-10-19T04:15:09.979Z,490.30
2022-10-19T04:17:38.049Z,461.77
2022-10-19T04:20:07.333Z,471.13
2022-10-19T04:22:35.400Z,464.93
2022-10-19T04:25:03.392Z,501.23
2022-10-19T04:27:31.767Z,499.70
2022-10-19T04:29:59.958Z,472.97
2022-10-19T04:32:29.492Z,467.00
2022-10-19T04:34:57.569Z,449.80
2022-10-19T04:37:26.033Z,437.93
2022-10-19T04:39:54.309Z,440.37
2022-10-19T04:42:22.338Z,464.77
2022-10-19T04:44:50.321Z,431.30
2022-10-19T04:47:19.065Z,419.77
2022-10-19T04:49:48.447Z,455.63
2022-10-19T04:52:16.482Z,448.80
2022-10-19T04:54:44.701Z,425.97
2022-10-19T04:57:12.781Z,412.67
2022-10-19T04:59:40.985Z,431.67
2022-10-19T05:02:09.101Z,426.23
2022-10-19T05:04:38.303Z,412.73
2022-10-19T05:07:09.135Z,422.40
2022-10-19T05:09:40.328Z,438.27
2022-10-19T05:12:08.411Z,425.50
2022-10-19T05:14:39.060Z,427.87
2022-10-19T05:17:10.106Z,421.87
2022-10-19T05:19:38.096Z,412.57
2022-10-19T05:22:06.174Z,419.70
2022-10-19T05:24:35.524Z,382.80
2022-10-19T05:27:03.543Z,435.40
2022-10-19T05:29:33.810Z,456.23
2022-10-19T05:32:01.812Z,424.23
2022-10-19T05:34:29.860Z,417.57
2022-10-19T05:36:57.934Z,380.20
2022-10-19T05:39:26.045Z,398.00
2022-10-19T05:41:55.393Z,417.93
2022-10-19T05:44:24.591Z,406.27
2022-10-19T05:46:53.012Z,418.27
2022-10-19T05:49:22.906Z,434.07
2022-10-19T05:51:51.323Z,422.90
2022-10-19T05:54:21.809Z,417.23
2022-10-19T05:56:51.845Z,413.50
2022-10-19T05:59:22.284Z,426.87
2022-10-19T06:01:50.440Z,463.93
2022-10-19T06:04:18.438Z,454.97
2022-10-19T06:06:46.494Z,431.43
2022-10-19T06:09:14.679Z,440.10
2022-10-19T06:11:43.347Z,444.43
2022-10-19T06:14:14.128Z,436.83
2022-10-19T06:16:45.772Z,436.87
2022-10-19T06:19:13.835Z,447.80
2022-10-19T06:21:44.871Z,493.93
2022-10-19T06:24:14.233Z,448.10
2022-10-19T06:26:42.199Z,457.60
2022-10-19T06:29:29.050Z,428.63
2022-10-19T06:32:00.264Z,423.97
2022-10-19T06:34:28.330Z,437.27
2022-10-19T06:36:56.411Z,429.43
2022-10-19T06:39:24.382Z,465.27
2022-10-19T06:41:52.373Z,434.33
2022-10-19T06:44:20.535Z,459.10
2022-10-19T06:46:48.697Z,438.27
2022-10-19T06:49:18.213Z,427.00
2022-10-19T06:51:46.222Z,435.07
2022-10-19T06:54:14.223Z,466.37
2022-10-19T06:56:42.244Z,427.80
2022-10-19T06:59:13.018Z,477.60
2022-10-19T07:01:41.275Z,447.23
2022-10-19T07:04:09.706Z,472.03
2022-10-19T07:06:41.200Z,505.13
2022-10-19T07:09:09.274Z,481.40
2022-10-19T07:11:38.328Z,493.80
2022-10-19T07:14:11.726Z,493.40
2022-10-19T07:16:42.605Z,517.57
2022-10-19T07:19:11.719Z,491.77
2022-10-19T07:21:42.976Z,510.97
2022-10-19T07:24:11.310Z,512.47
2022-10-19T07:26:43.759Z,501.03
2022-10-19T07:29:12.066Z,464.00
2022-10-19T07:31:43.282Z,485.10
2022-10-19T07:34:29.020Z,497.27
2022-10-19T07:36:58.768Z,450.83
2022-10-19T07:39:27.443Z,448.13
2022-10-19T07:41:55.417Z,453.63
2022-10-19T07:44:23.441Z,430.87
2022-10-19T07:46:51.729Z,432.80
2022-10-19T07:49:20.667Z,440.87
2022-10-19T07:51:48.959Z,443.33
2022-10-19T07:54:18.284Z,440.77
2022-10-19T07:56:46.229Z,467.30
2022-10-19T07:59:16.241Z,472.97
2022-10-19T08:01:44.932Z,465.37
2022-10-19T08:04:55.593Z,466.00
2022-10-19T08:07:01.096Z,404.17
2022-10-19T08:12:18.411Z,398.87
2022-10-19T08:14:47.949Z,410.73
2022-10-19T08:17:17.697Z,432.80
2022-10-19T08:19:46.265Z,422.83
2022-10-19T08:22:14.307Z,432.70
2022-10-19T08:24:43.705Z,478.83
2022-10-19T08:27:11.766Z,460.50
2022-10-19T08:29:39.806Z,479.23
2022-10-19T08:32:07.772Z,520.77
2022-10-19T08:34:35.848Z,472.60
2022-10-19T08:37:10.471Z,496.53
2022-10-19T08:39:49.574Z,475.30
2022-10-19T08:42:19.856Z,508.33
2022-10-19T08:45:24.663Z,530.17
2022-10-19T08:48:00.420Z,559.30
2022-10-19T08:50:31.794Z,576.77
2022-10-19T08:53:03.774Z,596.83
2022-10-19T08:55:44.546Z,582.97
2022-10-19T08:58:22.403Z,572.77
2022-10-19T09:00:53.479Z,547.30
2022-10-19T09:03:37.907Z,548.47
2022-10-19T09:06:23.074Z,513.17
2022-10-19T09:08:52.485Z,561.67
2022-10-19T09:11:26.008Z,579.07
2022-10-19T09:14:05.695Z,612.03
2022-10-19T09:16:35.151Z,597.33
2022-10-19T09:19:03.894Z,622.57
2022-10-19T09:21:47.039Z,652.47
2022-10-19T09:24:28.446Z,662.70
2022-10-19T09:27:00.244Z,687.37
2022-10-19T09:29:36.593Z,691.83
2022-10-19T09:32:06.411Z,730.30
2022-10-19T09:34:36.764Z,717.80
2022-10-19T09:37:05.255Z,751.93
2022-10-19T09:39:33.542Z,737.33
2022-10-19T09:42:14.553Z,724.87
2022-10-19T09:44:42.640Z,761.03
2022-10-19T09:47:22.815Z,754.20
2022-10-19T09:49:50.992Z,731.17
2022-10-19T09:52:38.036Z,753.63
2022-10-19T09:55:07.385Z,748.70
2022-10-19T09:57:43.277Z,761.07
2022-10-19T10:00:19.736Z,747.67
2022-10-19T10:02:51.732Z,740.20
2022-10-19T10:05:20.864Z,737.67
2022-10-19T10:07:49.134Z,763.47
2022-10-19T10:10:25.528Z,768.93
2022-10-19T10:12:56.515Z,783.43
2022-10-19T10:15:27.240Z,749.47
2022-10-19T10:17:56.803Z,761.97
2022-10-19T10:20:29.451Z,756.83
2022-10-19T10:23:00.447Z,756.27
2022-10-19T10:25:31.028Z,757.57
2022-10-19T10:28:03.073Z,753.97
2022-10-19T10:30:34.850Z,758.23
2022-10-19T10:33:21.132Z,738.50
2022-10-19T10:35:53.725Z,766.43
2022-10-19T10:38:25.013Z,743.63
2022-10-19T10:40:54.471Z,737.47
2022-10-19T10:43:28.865Z,743.80
2022-10-19T10:46:02.072Z,752.43
2022-10-19T10:48:32.327Z,739.37
2022-10-19T10:51:02.019Z,754.93
2022-10-19T10:53:33.888Z,732.53
2022-10-19T10:56:02.490Z,775.90
2022-10-19T10:58:38.177Z,745.90
2022-10-19T11:01:09.413Z,751.83
2022-10-19T11:03:43.479Z,774.13
2022-10-19T11:06:12.766Z,801.00
2022-10-19T11:08:47.960Z,806.30
2022-10-19T11:11:18.365Z,819.63
2022-10-19T11:13:51.869Z,791.37
2022-10-19T11:16:21.065Z,802.20
2022-10-19T11:18:51.751Z,807.03
2022-10-19T11:21:27.559Z,799.87
2022-10-19T11:24:01.567Z,805.27
2022-10-19T11:26:48.824Z,792.83
2022-10-19T11:29:31.486Z,812.37
2022-10-19T11:31:59.650Z,799.00
2022-10-19T11:34:39.863Z,807.20
2022-10-19T11:37:16.943Z,796.77
2022-10-19T11:39:52.400Z,814.93
2022-10-19T11:42:26.175Z,808.87
2022-10-19T11:45:04.531Z,824.73
2022-10-19T11:47:51.031Z,809.53
2022-10-19T11:50:32.101Z,798.70
2022-10-19T11:53:05.858Z,789.77
2022-10-19T11:55:40.542Z,794.33
2022-10-19T11:58:18.952Z,806.80
2022-10-19T12:00:51.304Z,799.60
2022-10-19T12:03:45.656Z,837.80
2022-10-19T12:06:19.274Z,803.97
2022-10-19T12:09:02.469Z,819.43
2022-10-19T12:11:42.307Z,792.87
2022-10-19T12:14:14.229Z,820.23
2022-10-19T12:16:46.538Z,812.70
2022-10-19T12:19:19.915Z,809.70
2022-10-19T12:21:48.929Z,807.60
2022-10-19T12:24:19.363Z,856.13
2022-10-19T12:26:48.299Z,844.83
2022-10-19T12:29:20.437Z,844.27
2022-10-19T12:31:50.407Z,818.07
2022-10-19T12:34:27.637Z,816.33
2022-10-19T12:36:58.425Z,819.00
2022-10-19T12:39:31.490Z,811.00
2022-10-19T12:42:04.899Z,807.73
2022-10-19T12:44:56.230Z,826.63
2022-10-19T12:47:28.087Z,805.03
2022-10-19T12:49:56.280Z,778.70
2022-10-19T12:52:40.405Z,824.40
2022-10-19T12:55:13.682Z,816.97
2022-10-19T12:57:43.558Z,808.57
2022-10-19T13:00:21.236Z,807.37
2022-10-19T13:03:06.781Z,819.03
2022-10-19T13:05:35.971Z,827.80
2022-10-19T13:08:07.055Z,819.27
2022-10-19T13:10:37.456Z,822.37
2022-10-19T13:13:05.516Z,829.50
2022-10-19T13:15:58.102Z,808.63
2022-10-19T13:19:07.005Z,830.80
2022-10-19T13:21:47.766Z,810.67
2022-10-19T13:24:36.736Z,830.67
2022-10-19T13:27:39.520Z,817.50
2022-10-19T13:30:48.251Z,805.93
2022-10-19T13:33:48.636Z,808.00
2022-10-19T13:36:17.497Z,821.67
2022-10-19T13:38:48.901Z,847.03
2022-10-19T13:41:21.410Z,841.23
2022-10-19T13:43:57.433Z,823.87
2022-10-19T13:46:39.504Z,826.20
2022-10-19T13:49:38.779Z,837.87
2022-10-19T13:52:26.152Z,799.63
2022-10-19T13:55:22.688Z,836.30
2022-10-19T13:58:06.160Z,823.97
2022-10-19T14:00:39.270Z,831.83
2022-10-19T14:03:27.530Z,824.40
2022-10-19T14:06:28.620Z,818.47
2022-10-19T14:09:22.932Z,808.30
2022-10-19T14:11:53.631Z,819.47
2022-10-19T14:14:23.092Z,801.67
2022-10-19T14:16:56.158Z,825.07
2022-10-19T14:19:28.769Z,843.33
2022-10-19T14:21:58.007Z,833.67
2022-10-19T14:24:32.427Z,837.90
2022-10-19T14:27:07.518Z,849.50
2022-10-19T14:29:44.698Z,794.83
2022-10-19T14:32:13.150Z,807.73
2022-10-19T14:34:42.229Z,825.50
2022-10-19T14:37:14.941Z,805.70
2022-10-19T14:39:42.933Z,800.97
2022-10-19T14:42:12.306Z,808.20
2022-10-19T14:44:42.289Z,835.97
2022-10-19T14:47:24.190Z,827.57
2022-10-19T14:49:52.364Z,815.33
2022-10-19T14:52:25.904Z,810.73
2022-10-19T14:54:54.422Z,848.07
2022-10-19T14:57:26.753Z,828.27
2022-10-19T14:59:57.485Z,822.73
2022-10-19T15:02:27.579Z,843.87
2022-10-19T15:04:57.071Z,831.07
2022-10-19T15:07:27.930Z,834.93
2022-10-19T15:09:58.214Z,809.60
2022-10-19T15:12:31.334Z,829.37
2022-10-19T15:14:59.415Z,822.90
2022-10-19T15:17:28.837Z,836.47
2022-10-19T15:19:59.955Z,824.50
2022-10-19T15:22:39.650Z,814.53
2022-10-19T15:25:35.388Z,799.90
2022-10-19T15:28:36.079Z,813.13
2022-10-19T15:31:08.400Z,835.40
2022-10-19T15:33:39.927Z,798.67
2022-10-19T15:36:16.906Z,823.47
2022-10-19T15:38:45.991Z,836.93
2022-10-19T15:41:21.711Z,831.90
2022-10-19T15:43:52.525Z,831.03
2022-10-19T15:46:56.487Z,855.07
2022-10-19T15:49:53.537Z,828.07
2022-10-19T15:52:22.784Z,838.47
2022-10-19T15:54:51.016Z,834.17
2022-10-19T15:57:31.090Z,855.07
2022-10-19T16:00:02.315Z,855.70
2022-10-19T16:02:32.189Z,841.33
2022-10-19T16:05:00.232Z,867.43
2022-10-19T16:07:29.798Z,817.07
2022-10-19T16:09:58.746Z,824.07
2022-10-19T16:12:27.525Z,846.60
2022-10-19T16:14:55.649Z,841.37
2022-10-19T16:17:25.192Z,835.50
2022-10-19T16:19:53.499Z,826.47
2022-10-19T16:22:21.601Z,813.77
2022-10-19T16:24:49.712Z,827.27
2022-10-19T16:27:17.898Z,818.97
2022-10-19T16:29:46.064Z,826.07
2022-10-19T16:32:14.083Z,802.97
2022-10-19T16:34:43.587Z,814.80
2022-10-19T16:37:11.655Z,812.10
2022-10-19T16:39:39.754Z,822.37
2022-10-19T16:42:07.787Z,815.73
2022-10-19T16:44:36.003Z,829.97
2022-10-19T16:47:05.234Z,807.13
2022-10-19T16:49:33.541Z,825.00
2022-10-19T16:52:02.983Z,779.63
2022-10-19T16:54:32.687Z,806.80
2022-10-19T16:57:02.220Z,800.53
2022-10-19T16:59:31.766Z,829.90
2022-10-19T17:01:59.839Z,787.20
2022-10-19T17:04:27.864Z,799.60
2022-10-19T17:06:57.092Z,767.23
2022-10-19T17:09:42.754Z,804.70
2022-10-19T17:12:12.148Z,806.57
2022-10-19T17:14:41.826Z,779.33
2022-10-19T17:17:10.574Z,781.40
2022-10-19T17:19:38.997Z,793.47
2022-10-19T17:22:07.195Z,815.07
2022-10-19T17:24:39.254Z,782.87
2022-10-19T17:27:07.516Z,822.80
2022-10-19T17:29:35.992Z,815.87
2022-10-19T17:32:04.064Z,801.10
2022-10-19T17:34:32.476Z,800.47
2022-10-19T17:37:00.525Z,787.83
2022-10-19T17:39:30.022Z,801.17
2022-10-19T17:42:02.191Z,802.93
2022-10-19T17:44:31.590Z,792.63
2022-10-19T17:47:01.297Z,774.50
2022-10-19T17:49:30.467Z,787.47
2022-10-19T17:51:58.617Z,800.77
2022-10-19T17:54:27.092Z,793.93
2022-10-19T17:56:57.942Z,794.23
2022-10-19T17:59:34.922Z,790.43
2022-10-19T18:02:04.221Z,764.57
2022-10-19T18:04:32.225Z,754.83
2022-10-19T18:07:00.315Z,767.47
2022-10-19T18:09:28.324Z,766.93
2022-10-19T18:11:56.654Z,797.17
2022-10-19T18:14:24.851Z,747.23
2022-10-19T18:16:54.416Z,785.57
2022-10-19T18:19:22.562Z,760.77
2022-10-19T18:21:53.146Z,786.97
2022-10-19T18:24:21.484Z,773.07
2022-10-19T18:26:52.602Z,764.03
2022-10-19T18:29:22.994Z,761.17
2022-10-19T18:31:55.058Z,769.87
2022-10-19T18:34:27.119Z,769.97
2022-10-19T18:36:56.852Z,764.83
2022-10-19T18:39:29.213Z,781.10
2022-10-19T18:41:58.361Z,776.17
2022-10-19T18:44:28.660Z,773.63
2022-10-19T18:47:00.129Z,771.17
2022-10-19T18:49:29.825Z,785.93
2022-10-19T18:51:59.249Z,767.73
2022-10-19T18:54:29.107Z,790.90
2022-10-19T18:56:59.585Z,794.53
2022-10-19T19:01:59.069Z,766.23
2022-10-19T19:04:28.771Z,773.23
2022-10-19T19:06:57.087Z,792.03
2022-10-19T19:09:25.327Z,768.20
2022-10-19T19:11:57.848Z,778.73
2022-10-19T19:14:26.643Z,764.37
2022-10-19T19:16:54.786Z,746.40
2022-10-19T19:19:24.469Z,779.67
2022-10-19T19:21:58.175Z,751.00
2022-10-19T19:24:31.480Z,755.13
2022-10-19T19:27:00.187Z,740.73
2022-10-19T19:29:30.636Z,749.97
2022-10-19T19:31:58.817Z,729.37
2022-10-19T19:34:26.902Z,751.67
2022-10-19T19:36:54.988Z,726.23
2022-10-19T19:39:25.690Z,750.13
2022-10-19T19:41:53.785Z,734.20
2022-10-19T19:44:21.998Z,735.73
2022-10-19T19:46:50.166Z,754.13
2022-10-19T19:49:18.625Z,756.73
2022-10-19T19:51:46.966Z,746.50
2022-10-19T19:54:15.041Z,745.17
2022-10-19T19:56:44.503Z,741.80
2022-10-19T19:59:13.444Z,735.53
2022-10-19T20:01:45.737Z,733.73
2022-10-19T20:04:16.270Z,755.87
2022-10-19T20:06:44.665Z,746.77
2022-10-19T20:09:12.825Z,729.53
2022-10-19T20:11:42.751Z,718.20
2022-10-19T20:14:14.061Z,738.47
2022-10-19T20:16:42.454Z,744.33
2022-10-19T20:19:12.267Z,739.73
2022-10-19T20:21:40.772Z,749.17
2022-10-19T20:24:09.093Z,723.37
2022-10-19T20:26:39.986Z,733.37
2022-10-19T20:29:08.280Z,738.07
2022-10-19T20:31:40.443Z,751.77
2022-10-19T20:34:10.922Z,729.97
2022-10-19T20:36:39.984Z,725.00
2022-10-19T20:39:08.330Z,716.27
2022-10-19T20:41:37.016Z,733.43
2022-10-19T20:44:05.463Z,723.23
2022-10-19T20:46:33.698Z,721.10
2022-10-19T20:49:03.563Z,727.03
2022-10-19T20:51:33.329Z,691.83
2022-10-19T20:54:02.834Z,698.43
2022-10-19T20:56:33.057Z,691.07
2022-10-19T21:01:34.244Z,698.03
2022-10-19T21:04:06.729Z,706.37
2022-10-19T21:06:38.973Z,712.53
2022-10-19T21:09:07.903Z,706.60
2022-10-19T21:11:38.068Z,717.83
2022-10-19T21:14:07.957Z,695.07
2022-10-19T21:16:39.926Z,679.73
2022-10-19T21:19:12.550Z,698.53
2022-10-19T21:21:44.969Z,687.87
2022-10-19T21:24:15.368Z,688.67
2022-10-19T21:26:43.717Z,707.40
2022-10-19T21:29:13.350Z,712.20
2022-10-19T21:31:46.452Z,695.73
2022-10-19T21:34:20.036Z,682.00
2022-10-19T21:36:48.506Z,697.87
2022-10-19T21:39:16.927Z,691.30
2022-10-19T21:41:45.794Z,694.53
2022-10-19T21:44:15.665Z,688.30
2022-10-19T21:46:44.178Z,675.90
2022-10-19T21:49:13.130Z,698.10
2022-10-19T21:51:44.545Z,696.10
2022-10-19T21:54:15.092Z,682.57
2022-10-19T21:56:43.997Z,655.77
2022-10-19T21:59:13.081Z,660.53
2022-10-19T22:01:42.022Z,657.37
2022-10-19T22:04:12.645Z,671.63
2022-10-19T22:06:43.519Z,633.40
2022-10-19T22:09:14.486Z,619.50
2022-10-19T22:11:43.425Z,632.30
2022-10-19T22:14:13.587Z,631.57
2022-10-19T22:16:42.556Z,678.67
2022-10-19T22:19:11.112Z,676.10
2022-10-19T22:21:39.823Z,681.70
2022-10-19T22:24:12.663Z,673.63
2022-10-19T22:26:45.378Z,684.07
2022-10-19T22:29:14.707Z,701.23
2022-10-19T22:31:46.966Z,746.20
2022-10-19T22:34:17.603Z,697.77
2022-10-19T22:36:47.962Z,707.53
2022-10-19T22:39:21.121Z,730.00
2022-10-19T22:41:49.207Z,707.33
2022-10-19T22:44:17.229Z,719.83
2022-10-19T22:46:45.342Z,727.57
2022-10-19T22:49:13.526Z,716.50
2022-10-19T22:51:41.786Z,737.80
2022-10-19T22:54:09.885Z,721.13
2022-10-19T22:56:39.655Z,702.93
2022-10-19T22:59:08.316Z,718.67
2022-10-19T23:01:38.235Z,710.67
2022-10-19T23:04:06.663Z,689.57
2022-10-19T23:06:35.346Z,682.90
2022-10-19T23:09:03.665Z,686.70
2022-10-19T23:11:32.101Z,708.13
2022-10-19T23:14:01.657Z,684.40
2022-10-19T23:16:29.752Z,699.80
2022-10-19T23:18:57.889Z,723.17
2022-10-19T23:21:25.962Z,738.07
2022-10-19T23:23:54.676Z,741.00
2022-10-19T23:26:22.944Z,718.57
2022-10-19T23:28:51.352Z,743.30
2022-10-19T23:31:24.251Z,721.93
2022-10-19T23:33:52.750Z,739.97
2022-10-19T23:36:25.632Z,719.77
2022-10-19T23:38:55.609Z,747.47
2022-10-19T23:41:24.156Z,725.57
2022-10-19T23:43:52.694Z,761.93
2022-10-19T23:46:22.137Z,739.47
2022-10-19T23:48:52.132Z,775.77
2022-10-19T23:51:21.502Z,743.87
2022-10-19T23:53:53.246Z,734.57
2022-10-19T23:56:24.127Z,748.53
2022-10-19T23:58:53.308Z,758.90
